Time;durP1;ratioP1;P1;durP2;ratioP2;P2;SDS_P1;SDS_P2;PMS_P1;PMS_P2;Temp;Humidity;BMP_temperature;BMP_pressure;BME280_temperature;BME280_humidity;BME280_pressure;Samples;Min_cycle;Max_cycle;Signal;HPM_P1;HPM_P2
2023/06/12 00:00:11;;;;;;;6.22;3.90;;;15.30;30.30;;;;;;5089427;28;20028;-62
2023/06/12 00:02:37;;;;;;;6.00;3.92;;;15.30;31.10;;;;;;5107186;28;20028;-62
2023/06/12 00:05:03;;;;;;;8.52;3.50;;;15.20;31.00;;;;;;5088645;28;20453;-62
2023/06/12 00:07:30;;;;;;;4.22;3.08;;;15.10;30.90;;;;;;5100205;28;20036;-62
2023/06/12 00:09:55;;;;;;;3.53;3.22;;;15.00;31.60;;;;;;5089112;28;20020;-62
2023/06/12 00:12:21;;;;;;;6.38;3.28;;;15.00;31.70;;;;;;5106737;28;20090;-62
2023/06/12 00:14:47;;;;;;;4.82;3.38;;;14.90;31.90;;;;;;5109420;28;20019;-62
2023/06/12 00:17:12;;;;;;;4.45;3.90;;;14.80;32.10;;;;;;5092658;28;20031;-60
2023/06/12 00:19:38;;;;;;;6.32;4.20;;;14.80;32.10;;;;;;5109514;28;20119;-62
2023/06/12 00:22:04;;;;;;;6.00;3.78;;;14.70;32.70;;;;;;5091354;28;20016;-53
2023/06/12 00:24:29;;;;;;;4.60;3.55;;;14.70;34.50;;;;;;5109311;28;20073;-56
2023/06/12 00:26:55;;;;;;;4.75;3.15;;;14.70;32.70;;;;;;5087467;28;20784;-56
2023/06/12 00:29:20;;;;;;;4.20;3.80;;;14.70;33.50;;;;;;5101634;28;20047;-54
2023/06/12 00:31:45;;;;;;;6.70;4.18;;;14.60;33.50;;;;;;5087369;28;20027;-53
2023/06/12 00:34:11;;;;;;;5.95;3.75;;;14.50;33.90;;;;;;5088815;28;20031;-55
2023/06/12 00:36:36;;;;;;;5.10;3.75;;;14.50;34.00;;;;;;5106363;28;20028;-53
2023/06/12 00:39:03;;;;;;;4.22;3.30;;;14.50;34.20;;;;;;5088768;28;20059;-55
2023/06/12 00:41:28;;;;;;;5.25;3.72;;;14.40;34.00;;;;;;5108334;28;20085;-55
2023/06/12 00:43:54;;;;;;;5.43;3.55;;;14.40;34.70;;;;;;5087365;28;20040;-53
2023/06/12 00:46:21;;;;;;;4.78;3.60;;;14.30;34.20;;;;;;5106938;28;20035;-53
2023/06/12 00:48:47;;;;;;;4.60;3.47;;;14.30;35.10;;;;;;5087287;28;20024;-56
2023/06/12 00:51:12;;;;;;;6.03;3.28;;;14.20;35.00;;;;;;5108240;28;20076;-54
2023/06/12 00:53:38;;;;;;;5.05;3.05;;;14.20;35.50;;;;;;5087476;28;20024;-54
2023/06/12 00:56:04;;;;;;;4.32;3.42;;;14.10;36.20;;;;;;5108251;28;20111;-55
2023/06/12 00:58:30;;;;;;;4.57;3.55;;;14.00;37.10;;;;;;5087462;28;20039;-55
2023/06/12 01:00:56;;;;;;;5.22;3.15;;;13.90;37.10;;;;;;5108349;28;20028;-55
2023/06/12 01:03:24;;;;;;;6.05;3.90;;;13.90;36.60;;;;;;5087221;28;20032;-53
2023/06/12 01:05:50;;;;;;;3.95;3.33;;;13.90;37.50;;;;;;5105757;28;20024;-56
2023/06/12 01:08:27;;;;;;;3.47;3.08;;;13.80;37.60;;;;;;5087310;28;20039;-54
2023/06/12 01:11:02;;;;;;;3.83;3.30;;;13.80;38.70;;;;;;5068389;28;20107;-53
2023/06/12 01:13:28;;;;;;;4.82;3.55;;;13.80;38.20;;;;;;5082021;28;20047;-55
2023/06/12 01:15:53;;;;;;;4.65;3.75;;;13.70;38.40;;;;;;5106871;28;20525;-56
2023/06/12 01:18:21;;;;;;;5.75;3.70;;;13.70;39.20;;;;;;5086878;28;20036;-53
2023/06/12 01:20:48;;;;;;;3.75;3.03;;;13.60;39.50;;;;;;5108200;28;20027;-54
2023/06/12 01:23:47;;;;;;;4.65;3.28;;;13.50;39.20;;;;;;5090134;28;20611;-54
2023/06/12 01:26:37;;;;;;;4.90;3.80;;;13.50;40.30;;;;;;5071787;28;20033;-54
2023/06/12 01:29:25;;;;;;;7.20;3.85;;;13.40;40.10;;;;;;5092658;28;20246;-53
2023/06/12 01:32:04;;;;;;;5.35;3.83;;;13.40;41.80;;;;;;5070777;28;20037;-56
2023/06/12 01:34:54;;;;;;;4.20;3.28;;;13.30;40.40;;;;;;5112319;27;20015;-54
2023/06/12 01:37:42;;;;;;;6.80;3.80;;;13.30;40.80;;;;;;5081867;28;20035;-54
2023/06/12 01:40:09;;;;;;;6.32;3.83;;;13.20;42.10;;;;;;5112285;28;20079;-55
2023/06/12 01:42:35;;;;;;;4.93;3.85;;;13.20;42.90;;;;;;5092575;28;20113;-53
2023/06/12 01:45:00;;;;;;;5.57;4.22;;;13.10;44.00;;;;;;5111446;28;20082;-56
2023/06/12 01:47:26;;;;;;;9.50;4.68;;;13.10;44.80;;;;;;5093029;28;20036;-53
2023/06/12 01:49:51;;;;;;;7.43;4.47;;;13.20;44.30;;;;;;5112094;28;20624;-52
2023/06/12 01:52:17;;;;;;;7.20;4.35;;;13.30;44.50;;;;;;5092183;28;20511;-53
2023/06/12 01:54:49;;;;;;;8.10;4.60;;;13.30;43.60;;;;;;5110811;28;20070;-55
2023/06/12 01:57:19;;;;;;;7.25;4.60;;;13.40;43.40;;;;;;5069251;28;20055;-54
2023/06/12 01:59:45;;;;;;;8.13;4.82;;;13.40;43.70;;;;;;5091540;28;20024;-54
2023/06/12 02:02:11;;;;;;;5.78;3.95;;;13.40;42.60;;;;;;5108537;28;20028;-56
2023/06/12 02:04:36;;;;;;;5.10;3.83;;;13.40;41.80;;;;;;5092172;28;20031;-54
2023/06/12 02:07:02;;;;;;;6.07;3.72;;;13.40;41.60;;;;;;5106973;28;20020;-55
2023/06/12 02:09:27;;;;;;;5.53;3.95;;;13.40;42.20;;;;;;5109792;28;20032;-55
2023/06/12 02:11:53;;;;;;;6.35;3.78;;;13.40;41.80;;;;;;5091743;28;20453;-52
2023/06/12 02:14:18;;;;;;;5.47;4.07;;;13.40;42.00;;;;;;5090295;28;20395;-56
2023/06/12 02:16:47;;;;;;;5.75;3.80;;;13.40;42.20;;;;;;5110853;28;20054;-53
2023/06/12 02:19:13;;;;;;;5.45;3.78;;;13.30;42.40;;;;;;5089080;28;20046;-52
2023/06/12 02:21:39;;;;;;;6.63;3.97;;;13.20;42.40;;;;;;5110734;28;20023;-55
2023/06/12 02:24:06;;;;;;;5.95;3.78;;;13.20;43.40;;;;;;5089637;28;20099;-54
2023/06/12 02:26:31;;;;;;;5.78;3.67;;;13.20;42.70;;;;;;5110726;28;20034;-56
2023/06/12 02:29:13;;;;;;;7.22;3.70;;;13.20;43.10;;;;;;5099145;28;20126;-54
2023/06/12 02:31:39;;;;;;;6.65;3.90;;;13.20;43.90;;;;;;5087344;28;20040;-55
2023/06/12 02:34:05;;;;;;;5.22;3.83;;;13.10;44.00;;;;;;5109257;28;20027;-56
2023/06/12 02:36:31;;;;;;;4.93;3.50;;;13.10;43.40;;;;;;5089566;28;20024;-54
2023/06/12 02:38:56;;;;;;;8.40;4.30;;;13.10;43.20;;;;;;5110116;28;20126;-55
2023/06/12 02:41:23;;;;;;;5.50;3.78;;;13.00;43.40;;;;;;5098686;28;20104;-54
2023/06/12 02:43:48;;;;;;;7.15;3.85;;;13.00;42.60;;;;;;5091332;28;20055;-56
2023/06/12 02:46:14;;;;;;;8.27;4.20;;;13.00;42.60;;;;;;5108357;28;20055;-55
2023/06/12 02:48:39;;;;;;;6.70;3.85;;;12.90;42.70;;;;;;5091091;28;20043;-52
2023/06/12 02:51:05;;;;;;;4.97;3.40;;;12.90;44.00;;;;;;5108012;28;20028;-51
2023/06/12 02:53:31;;;;;;;7.53;3.40;;;12.80;43.80;;;;;;5091126;28;20032;-52
2023/06/12 02:55:56;;;;;;;5.05;3.17;;;12.80;43.40;;;;;;5108230;28;20019;-54
2023/06/12 02:58:22;;;;;;;5.95;3.70;;;12.80;43.40;;;;;;5110718;28;20484;-56
2023/06/12 03:00:47;;;;;;;5.78;4.03;;;12.80;42.80;;;;;;5094626;28;20039;-56
2023/06/12 03:03:14;;;;;;;4.70;3.25;;;12.80;42.80;;;;;;5110338;28;20027;-53
2023/06/12 03:05:41;;;;;;;4.47;2.80;;;12.80;42.40;;;;;;5091249;28;20572;-55
2023/06/12 03:08:08;;;;;;;4.40;2.65;;;12.80;42.40;;;;;;5110078;28;20050;-52
2023/06/12 03:10:34;;;;;;;5.57;3.08;;;12.80;42.90;;;;;;5092265;28;20053;-56
2023/06/12 03:13:00;;;;;;;6.00;3.13;;;12.80;42.60;;;;;;5110779;28;20022;-56
2023/06/12 03:15:26;;;;;;;4.18;3.38;;;12.80;42.00;;;;;;5090975;28;20028;-54
2023/06/12 03:17:52;;;;;;;7.28;3.17;;;12.80;42.20;;;;;;5110566;27;20452;-56
2023/06/12 03:20:17;;;;;;;4.47;3.15;;;12.90;41.50;;;;;;5088520;28;20140;-55
2023/06/12 03:22:43;;;;;;;3.72;2.97;;;12.90;42.20;;;;;;5090071;28;20020;-50
2023/06/12 03:25:10;;;;;;;4.60;3.15;;;12.90;42.50;;;;;;5107459;28;20518;-50
2023/06/12 03:27:36;;;;;;;5.72;3.15;;;12.90;42.10;;;;;;5109982;28;20020;-53
2023/06/12 03:30:02;;;;;;;3.97;2.90;;;12.90;42.40;;;;;;5090265;28;20417;-51
2023/06/12 03:32:28;;;;;;;4.85;3.33;;;12.90;43.70;;;;;;5087879;28;20572;-55
2023/06/12 03:34:54;;;;;;;7.68;3.50;;;13.00;42.50;;;;;;5109337;28;20085;-57
2023/06/12 03:37:19;;;;;;;5.18;2.97;;;13.10;42.10;;;;;;5088434;28;20036;-54
2023/06/12 03:39:45;;;;;;;7.55;3.00;;;13.70;40.10;;;;;;5093870;28;20040;-53
2023/06/12 03:42:10;;;;;;;6.63;3.28;;;14.50;36.70;;;;;;5087786;28;20032;-55
2023/06/12 03:44:36;;;;;;;5.57;3.55;;;15.20;34.30;;;;;;5109606;28;20092;-55
2023/06/12 03:47:02;;;;;;;4.03;3.50;;;15.90;31.70;;;;;;5090005;28;20032;-55
2023/06/12 03:49:28;;;;;;;4.40;3.10;;;16.40;30.20;;;;;;5101521;28;20082;-50
2023/06/12 03:51:54;;;;;;;5.20;3.33;;;17.10;28.60;;;;;;5089422;28;20432;-53
2023/06/12 03:54:20;;;;;;;4.03;3.13;;;17.70;26.90;;;;;;5087260;28;20035;-55
2023/06/12 03:56:48;;;;;;;3.92;3.20;;;18.20;25.40;;;;;;5108913;28;20398;-54
2023/06/12 03:59:13;;;;;;;6.55;3.10;;;18.80;23.80;;;;;;5087476;28;20062;-56
2023/06/12 04:01:39;;;;;;;4.50;3.25;;;19.20;19.90;;;;;;5107586;28;20546;-53
2023/06/12 04:04:05;;;;;;;3.55;2.83;;;19.60;18.80;;;;;;5087876;28;20031;-54
2023/06/12 04:06:32;;;;;;;4.78;3.17;;;20.10;19.90;;;;;;5106125;28;20024;-53
2023/06/12 04:08:59;;;;;;;9.55;3.20;;;20.40;18.70;;;;;;5087644;28;20051;-55
2023/06/12 04:11:25;;;;;;;3.08;2.78;;;20.80;18.10;;;;;;5108799;28;20042;-50
2023/06/12 04:13:50;;;;;;;4.72;3.17;;;21.20;16.10;;;;;;5086429;28;20029;-53
2023/06/12 04:16:16;;;;;;;4.45;3.30;;;21.40;16.00;;;;;;5108673;28;20507;-53
2023/06/12 04:18:42;;;;;;;5.32;2.80;;;21.50;15.00;;;;;;5087719;28;20039;-54
2023/06/12 04:21:08;;;;;;;4.70;2.85;;;21.80;14.30;;;;;;5108765;28;20019;-55
2023/06/12 04:23:33;;;;;;;3.75;2.63;;;22.10;13.00;;;;;;5087703;28;20114;-55
2023/06/12 04:26:05;;;;;;;7.30;2.72;;;22.50;14.80;;;;;;5108632;28;20069;-51
2023/06/12 04:28:38;;;;;;;5.25;2.72;;;23.10;13.00;;;;;;5090028;28;20047;-55
2023/06/12 04:31:03;;;;;;;3.25;2.50;;;23.30;13.20;;;;;;5095097;28;20043;-54
2023/06/12 04:33:35;;;;;;;7.55;3.22;;;23.50;12.00;;;;;;5100446;28;20031;-54
2023/06/12 04:36:02;;;;;;;3.53;2.90;;;23.70;12.20;;;;;;5083067;28;20051;-51
2023/06/12 04:38:30;;;;;;;3.45;2.42;;;24.00;11.20;;;;;;5085602;28;20044;-53
2023/06/12 04:40:58;;;;;;;4.38;2.63;;;24.40;9.90;;;;;;5085201;28;20111;-55
2023/06/12 04:43:24;;;;;;;5.10;2.63;;;24.80;11.00;;;;;;5087771;28;20040;-55
2023/06/12 04:45:51;;;;;;;5.20;2.88;;;25.00;10.30;;;;;;5090599;28;20077;-54
2023/06/12 04:48:17;;;;;;;3.80;3.00;;;25.20;7.30;;;;;;5108404;28;20027;-51
2023/06/12 04:50:44;;;;;;;2.55;2.35;;;24.90;8.90;;;;;;5087374;28;20024;-56
2023/06/12 04:53:09;;;;;;;3.38;2.80;;;25.30;9.20;;;;;;5108478;28;20016;-54
2023/06/12 04:55:35;;;;;;;4.28;2.65;;;25.60;8.90;;;;;;5087244;28;20028;-53
2023/06/12 04:58:00;;;;;;;4.75;2.35;;;25.70;8.30;;;;;;5111373;28;20084;-54
2023/06/12 05:00:28;;;;;;;3.22;2.58;;;26.20;8.30;;;;;;5091286;28;20398;-54
2023/06/12 05:02:55;;;;;;;3.60;2.55;;;26.60;7.50;;;;;;5101801;28;20396;-54
2023/06/12 05:05:21;;;;;;;4.35;2.47;;;27.00;6.50;;;;;;5097688;28;20016;-54
2023/06/12 05:07:47;;;;;;;3.30;2.72;;;27.30;6.50;;;;;;5109901;28;20032;-55
2023/06/12 05:10:14;;;;;;;5.82;2.60;;;27.40;6.20;;;;;;5112560;28;20024;-54
2023/06/12 05:12:40;;;;;;;2.45;2.25;;;27.40;5.50;;;;;;5097178;28;20114;-54
2023/06/12 05:15:06;;;;;;;5.97;2.53;;;28.00;4.40;;;;;;5112522;28;20094;-52
2023/06/12 05:17:32;;;;;;;2.95;2.58;;;27.90;4.30;;;;;;5095985;28;20043;-53
2023/06/12 05:19:58;;;;;;;3.38;2.38;;;28.20;3.90;;;;;;5112578;28;20019;-52
2023/06/12 05:22:23;;;;;;;3.05;2.40;;;28.40;4.00;;;;;;5094743;28;20040;-56
2023/06/12 05:24:49;;;;;;;3.33;2.70;;;29.10;4.30;;;;;;5112397;28;20475;-56
2023/06/12 05:27:14;;;;;;;5.57;2.75;;;29.00;3.40;;;;;;5093362;28;20058;-55
2023/06/12 05:29:40;;;;;;;3.42;2.47;;;29.00;1.20;;;;;;5112184;28;20051;-54
2023/06/12 05:32:06;;;;;;;3.78;2.33;;;29.00;1.00;;;;;;5092168;28;20032;-56
2023/06/12 05:34:31;;;;;;;3.35;2.35;;;29.60;2.30;;;;;;5110898;28;20034;-55
2023/06/12 05:36:57;;;;;;;3.85;2.55;;;30.00;1.50;;;;;;5090806;28;20067;-55
2023/06/12 05:39:22;;;;;;;5.53;3.00;;;29.70;1.30;;;;;;5112021;28;20520;-53
2023/06/12 05:41:48;;;;;;;3.50;2.53;;;29.60;1.00;;;;;;5092049;28;20028;-55
2023/06/12 05:44:13;;;;;;;3.90;2.88;;;29.70;1.00;;;;;;5109315;28;20092;-51
2023/06/12 05:46:38;;;;;;;4.05;2.70;;;29.70;1.00;;;;;;5092050;28;20039;-54
2023/06/12 05:49:04;;;;;;;4.55;2.97;;;29.90;1.30;;;;;;5091103;28;20032;-53
2023/06/12 05:51:29;;;;;;;3.78;2.95;;;30.10;1.00;;;;;;5111179;28;20027;-56
2023/06/12 05:53:55;;;;;;;3.83;2.75;;;30.10;1.00;;;;;;5090098;28;20418;-52
2023/06/12 05:56:22;;;;;;;9.98;3.10;;;29.50;1.00;;;;;;5110978;28;20028;-55
2023/06/12 05:58:47;;;;;;;5.25;3.13;;;29.80;1.00;;;;;;5089839;28;20028;-56
2023/06/12 06:01:16;;;;;;;5.07;3.00;;;30.60;1.00;;;;;;5110780;28;20105;-52
2023/06/12 06:03:45;;;;;;;4.55;2.88;;;31.70;1.00;;;;;;5089449;28;20024;-55
2023/06/12 06:06:14;;;;;;;5.60;2.60;;;31.50;1.00;;;;;;5105335;28;20620;-54
2023/06/12 06:08:40;;;;;;;4.50;2.72;;;32.10;1.00;;;;;;5089422;28;20028;-56
2023/06/12 06:11:06;;;;;;;4.45;2.40;;;33.20;1.00;;;;;;5110742;28;20023;-54
2023/06/12 06:13:31;;;;;;;4.03;2.58;;;34.20;1.00;;;;;;5089815;28;20089;-56
2023/06/12 06:15:57;;;;;;;4.50;2.90;;;34.30;1.00;;;;;;5110675;28;20129;-55
2023/06/12 06:18:22;;;;;;;3.63;2.63;;;33.60;1.00;;;;;;5089375;28;20040;-56
2023/06/12 06:20:48;;;;;;;6.70;2.75;;;33.60;1.00;;;;;;5110526;28;20376;-56
2023/06/12 06:23:14;;;;;;;3.90;2.60;;;34.20;1.00;;;;;;5089743;28;20071;-57
2023/06/12 06:25:40;;;;;;;4.65;3.13;;;35.20;1.00;;;;;;5110517;28;20051;-64
2023/06/12 06:28:05;;;;;;;4.43;2.30;;;35.10;1.00;;;;;;5099353;27;20407;-64
2023/06/12 06:30:31;;;;;;;3.92;2.53;;;35.20;1.00;;;;;;5091032;28;20533;-64
2023/06/12 06:32:57;;;;;;;3.67;2.72;;;35.90;1.00;;;;;;5108170;28;20034;-63
2023/06/12 06:35:22;;;;;;;3.83;2.72;;;35.60;1.00;;;;;;5091100;28;20111;-63
2023/06/12 06:37:47;;;;;;;2.88;2.33;;;35.20;1.00;;;;;;5108172;28;20449;-63
2023/06/12 06:40:14;;;;;;;6.32;3.15;;;35.10;1.00;;;;;;5110781;28;20487;-63
2023/06/12 06:42:41;;;;;;;3.38;2.80;;;35.30;1.00;;;;;;5095387;27;20059;-64
2023/06/12 06:45:07;;;;;;;4.38;2.55;;;35.10;1.00;;;;;;5110904;28;20406;-63
2023/06/12 06:47:33;;;;;;;4.32;2.97;;;35.00;1.00;;;;;;5094274;28;20057;-63
2023/06/12 06:49:59;;;;;;;4.28;2.85;;;35.50;1.00;;;;;;5110691;28;20031;-63
2023/06/12 06:52:25;;;;;;;3.65;2.67;;;35.90;1.00;;;;;;5093197;28;20023;-63
2023/06/12 06:54:51;;;;;;;4.43;2.60;;;36.30;1.00;;;;;;5110650;28;20020;-63
2023/06/12 06:57:17;;;;;;;2.90;2.60;;;36.90;1.00;;;;;;5092047;28;20030;-63
2023/06/12 06:59:42;;;;;;;2.80;2.47;;;36.10;1.00;;;;;;5110664;28;20078;-63
2023/06/12 07:02:08;;;;;;;3.10;2.80;;;36.40;1.00;;;;;;5090558;28;20094;-62
2023/06/12 07:04:33;;;;;;;2.92;2.70;;;37.00;1.00;;;;;;5108167;28;20061;-63
2023/06/12 07:06:59;;;;;;;3.38;2.47;;;37.30;1.00;;;;;;5085810;28;20480;-63
2023/06/12 07:09:24;;;;;;;2.70;2.50;;;37.90;1.00;;;;;;5110366;28;20072;-63
2023/06/12 07:11:50;;;;;;;5.03;2.88;;;39.00;1.00;;;;;;5090478;28;20052;-63
2023/06/12 07:14:16;;;;;;;4.72;2.75;;;37.90;1.00;;;;;;5107886;28;20027;-63
2023/06/12 07:16:41;;;;;;;3.22;2.90;;;37.40;1.00;;;;;;5090161;28;20035;-64
2023/06/12 07:19:07;;;;;;;2.70;2.50;;;38.30;1.00;;;;;;5087980;28;20043;-62
2023/06/12 07:21:32;;;;;;;4.25;2.50;;;38.20;1.00;;;;;;5107860;28;20031;-64
2023/06/12 07:23:58;;;;;;;4.93;2.85;;;38.50;1.00;;;;;;5088346;28;20032;-64
2023/06/12 07:26:24;;;;;;;3.67;2.50;;;38.60;1.00;;;;;;5109226;28;20023;-63
2023/06/12 07:28:49;;;;;;;3.15;2.20;;;37.80;1.00;;;;;;5096722;28;20039;-64
2023/06/12 07:31:15;;;;;;;2.38;2.10;;;38.30;1.00;;;;;;5089864;28;20115;-64
2023/06/12 07:33:41;;;;;;;2.63;2.22;;;38.80;1.00;;;;;;5092171;28;20674;-64
2023/06/12 07:36:07;;;;;;;2.65;2.45;;;37.90;1.00;;;;;;5109120;28;20744;-62
2023/06/12 07:38:32;;;;;;;4.82;2.45;;;39.10;1.00;;;;;;5087973;28;20119;-63
2023/06/12 07:40:58;;;;;;;3.88;2.75;;;39.60;1.00;;;;;;5108875;28;20027;-64
2023/06/12 07:43:23;;;;;;;4.93;2.65;;;38.40;1.00;;;;;;5087855;28;20040;-64
2023/06/12 07:45:49;;;;;;;3.28;2.88;;;38.40;1.00;;;;;;5108677;28;20510;-65
2023/06/12 07:48:15;;;;;;;4.05;2.58;;;37.80;1.00;;;;;;5087726;28;20032;-64
2023/06/12 07:50:42;;;;;;;3.63;2.65;;;37.60;1.00;;;;;;5108635;28;20023;-64
2023/06/12 07:53:08;;;;;;;3.45;2.72;;;37.20;1.00;;;;;;5097761;28;20020;-63
2023/06/12 07:55:34;;;;;;;5.05;2.80;;;36.10;1.00;;;;;;5088126;28;20477;-64
2023/06/12 07:58:00;;;;;;;2.60;2.40;;;35.50;1.00;;;;;;5106624;28;20110;-64
2023/06/12 08:00:26;;;;;;;2.30;2.10;;;36.30;1.00;;;;;;5089380;28;20111;-63
2023/06/12 08:02:56;;;;;;;3.95;2.22;;;37.40;1.00;;;;;;5106795;28;20392;-64
2023/06/12 08:05:23;;;;;;;3.08;2.55;;;37.90;1.00;;;;;;5082631;28;20076;-64
2023/06/12 08:07:48;;;;;;;3.42;3.00;;;36.90;1.00;;;;;;5095072;28;20032;-63
2023/06/12 08:10:13;;;;;;;9.07;2.78;;;35.50;1.00;;;;;;5109175;28;20068;-63
2023/06/12 08:12:39;;;;;;;3.13;2.88;;;34.20;1.00;;;;;;5093830;28;20028;-63
2023/06/12 08:15:05;;;;;;;3.58;2.67;;;34.10;1.00;;;;;;5109004;28;20023;-63
2023/06/12 08:17:31;;;;;;;5.13;3.00;;;34.20;1.00;;;;;;5092369;28;20023;-63
2023/06/12 08:19:57;;;;;;;3.60;2.83;;;33.30;1.00;;;;;;5109189;28;20391;-63
2023/06/12 08:22:23;;;;;;;3.17;2.75;;;32.40;1.00;;;;;;5091331;28;20104;-64
2023/06/12 08:24:48;;;;;;;6.32;3.10;;;31.70;1.00;;;;;;5109184;28;20108;-64
2023/06/12 08:27:14;;;;;;;6.78;3.58;;;31.40;1.00;;;;;;5090255;28;20051;-63
2023/06/12 08:29:40;;;;;;;4.90;3.00;;;31.20;1.00;;;;;;5108944;28;20040;-63
2023/06/12 08:32:06;;;;;;;6.82;3.10;;;31.00;1.00;;;;;;5092352;28;20024;-63
2023/06/12 08:34:32;;;;;;;3.85;3.20;;;30.00;1.00;;;;;;5113283;28;20107;-63
2023/06/12 08:36:58;;;;;;;5.10;2.95;;;30.10;1.00;;;;;;5091928;28;20111;-62
2023/06/12 08:39:23;;;;;;;4.05;2.65;;;30.10;1.00;;;;;;5112857;28;20088;-63
2023/06/12 08:42:02;;;;;;;4.15;2.90;;;29.80;1.00;;;;;;5093066;28;20634;-63
2023/06/12 08:44:29;;;;;;;4.75;2.50;;;30.20;1.00;;;;;;5072448;28;20438;-63
2023/06/12 08:46:56;;;;;;;4.13;2.58;;;30.90;1.00;;;;;;5109886;28;20460;-62
2023/06/12 08:49:22;;;;;;;5.38;3.35;;;30.80;1.00;;;;;;5112983;28;20019;-63
2023/06/12 08:51:49;;;;;;;3.10;2.80;;;30.50;1.00;;;;;;5092985;28;20038;-63
2023/06/12 08:54:15;;;;;;;5.18;3.10;;;30.50;1.00;;;;;;5089171;28;20024;-63
2023/06/12 08:56:42;;;;;;;5.25;2.97;;;30.60;1.00;;;;;;5112085;28;20024;-64
2023/06/12 08:59:09;;;;;;;3.45;3.15;;;29.80;1.00;;;;;;5090659;28;20438;-63
2023/06/12 09:01:38;;;;;;;7.07;3.30;;;30.20;1.00;;;;;;5111996;28;20103;-63
2023/06/12 09:04:09;;;;;;;3.78;3.22;;;30.20;1.00;;;;;;5089117;28;20032;-63
2023/06/12 09:06:37;;;;;;;6.38;2.97;;;29.80;1.00;;;;;;5068792;28;20036;-63
2023/06/12 09:09:03;;;;;;;7.05;3.05;;;28.80;1.00;;;;;;5092066;28;20047;-63
2023/06/12 09:11:29;;;;;;;5.45;3.13;;;28.60;1.00;;;;;;5112001;28;20054;-63
2023/06/12 09:14:01;;;;;;;5.78;3.35;;;29.00;1.00;;;;;;5090759;28;20483;-63
2023/06/12 09:16:27;;;;;;;3.70;3.40;;;28.80;1.00;;;;;;5070442;28;20180;-63
2023/06/12 09:18:53;;;;;;;6.95;3.40;;;28.50;1.00;;;;;;5091129;28;20040;-63
2023/06/12 09:21:23;;;;;;;5.20;3.08;;;28.50;1.00;;;;;;5111849;28;20024;-63
2023/06/12 09:23:54;;;;;;;5.28;3.03;;;28.50;1.00;;;;;;5090647;28;20028;-63
2023/06/12 09:26:21;;;;;;;5.20;2.83;;;28.20;1.00;;;;;;5111841;28;20161;-63
2023/06/12 09:28:53;;;;;;;3.72;3.10;;;28.00;1.00;;;;;;5098421;28;20069;-63
2023/06/12 09:31:19;;;;;;;5.50;3.25;;;27.90;1.00;;;;;;5071599;28;20032;-63
2023/06/12 09:33:45;;;;;;;5.20;3.60;;;27.70;1.60;;;;;;5093617;28;20024;-62
2023/06/12 09:36:12;;;;;;;3.90;3.28;;;27.00;1.00;;;;;;5111611;28;20436;-62
2023/06/12 09:38:38;;;;;;;5.00;3.22;;;27.10;1.00;;;;;;5090313;28;20024;-62
2023/06/12 09:41:06;;;;;;;8.65;3.70;;;27.10;1.00;;;;;;5111510;28;20618;-63
2023/06/12 09:43:32;;;;;;;5.80;3.40;;;26.90;2.30;;;;;;5089296;28;20031;-62
2023/06/12 09:46:00;;;;;;;3.55;3.22;;;26.40;1.00;;;;;;5111301;28;20027;-63
2023/06/12 09:48:37;;;;;;;4.38;3.30;;;26.50;1.00;;;;;;5089842;28;20031;-63
2023/06/12 09:51:05;;;;;;;7.07;4.10;;;26.80;1.00;;;;;;5111353;28;20029;-63
2023/06/12 09:53:35;;;;;;;5.95;4.05;;;26.90;1.00;;;;;;5089692;28;20034;-62
2023/06/12 09:56:03;;;;;;;6.88;3.88;;;26.50;1.60;;;;;;5071130;28;20032;-63
2023/06/12 09:58:29;;;;;;;5.50;3.60;;;26.50;1.70;;;;;;5095456;28;20043;-62
2023/06/12 10:00:55;;;;;;;5.93;3.75;;;26.30;1.80;;;;;;5110931;28;20023;-64
2023/06/12 10:03:24;;;;;;;4.78;3.55;;;26.50;1.80;;;;;;5089770;28;20058;-63
2023/06/12 10:05:51;;;;;;;4.15;3.28;;;26.90;1.40;;;;;;5108600;28;20024;-62
2023/06/12 10:08:17;;;;;;;6.47;3.60;;;27.30;1.00;;;;;;5089608;28;20028;-62
2023/06/12 10:10:43;;;;;;;4.13;3.08;;;27.40;1.00;;;;;;5110879;28;20091;-63
2023/06/12 10:13:10;;;;;;;3.90;2.80;;;27.60;1.00;;;;;;5100273;28;20606;-62
2023/06/12 10:15:37;;;;;;;7.30;3.45;;;27.40;1.20;;;;;;5091162;28;20028;-62
2023/06/12 10:18:05;;;;;;;7.25;4.00;;;26.90;1.30;;;;;;5108613;28;20098;-63
2023/06/12 10:20:32;;;;;;;4.57;3.00;;;26.40;1.90;;;;;;5091035;28;20215;-63
2023/06/12 10:22:58;;;;;;;4.07;3.67;;;26.50;1.90;;;;;;5107341;28;20058;-62
2023/06/12 10:25:24;;;;;;;8.45;3.78;;;26.30;1.80;;;;;;5091158;28;20039;-62
2023/06/12 10:27:51;;;;;;;6.88;3.78;;;26.00;2.50;;;;;;5108486;28;20023;-62
2023/06/12 10:30:17;;;;;;;3.85;3.35;;;25.90;2.90;;;;;;5111127;28;20024;-62
2023/06/12 10:32:44;;;;;;;7.00;3.67;;;26.00;2.80;;;;;;5096155;28;20556;-62
2023/06/12 10:35:10;;;;;;;6.22;4.07;;;26.00;3.20;;;;;;5111048;28;20020;-62
2023/06/12 10:37:46;;;;;;;3.97;3.08;;;25.80;3.10;;;;;;5094992;28;20036;-63
2023/06/12 10:40:12;;;;;;;7.35;3.60;;;25.90;3.80;;;;;;5110912;28;20020;-62
2023/06/12 10:42:45;;;;;;;5.53;3.58;;;25.60;3.50;;;;;;5088881;28;20031;-63
2023/06/12 10:45:29;;;;;;;4.97;3.65;;;25.50;3.60;;;;;;5089121;28;20166;-62
2023/06/12 10:48:06;;;;;;;4.45;3.50;;;25.40;2.40;;;;;;5076836;28;20103;-62
2023/06/12 10:50:36;;;;;;;4.22;3.80;;;25.50;2.50;;;;;;5110153;28;20403;-63
2023/06/12 10:53:13;;;;;;;5.72;3.60;;;25.50;2.20;;;;;;5096541;28;20028;-62
2023/06/12 10:55:39;;;;;;;7.03;3.55;;;25.80;2.30;;;;;;5069225;28;20028;-63
2023/06/12 10:58:07;;;;;;;5.10;3.45;;;25.70;2.20;;;;;;5097609;28;20020;-63
2023/06/12 11:00:35;;;;;;;4.40;3.45;;;25.40;3.20;;;;;;5110079;28;20110;-62
2023/06/12 11:03:04;;;;;;;4.82;3.45;;;25.00;3.60;;;;;;5097762;28;20020;-63
2023/06/12 11:05:31;;;;;;;5.00;3.80;;;25.00;4.00;;;;;;5094790;28;20589;-63
2023/06/12 11:07:59;;;;;;;3.95;3.40;;;25.00;4.00;;;;;;5088497;28;20048;-63
2023/06/12 11:10:25;;;;;;;4.65;3.40;;;24.90;3.70;;;;;;5109866;28;20033;-63
2023/06/12 11:12:51;;;;;;;4.68;3.72;;;24.90;3.80;;;;;;5095188;28;20023;-63
2023/06/12 11:15:18;;;;;;;4.72;3.17;;;25.00;3.10;;;;;;5090343;28;20402;-62
2023/06/12 11:17:44;;;;;;;4.18;3.10;;;25.20;3.40;;;;;;5107674;28;20419;-62
2023/06/12 11:20:10;;;;;;;3.95;3.13;;;25.50;2.70;;;;;;5110254;28;20036;-62
2023/06/12 11:22:36;;;;;;;6.07;3.92;;;25.50;3.10;;;;;;5094150;28;20040;-62
2023/06/12 11:25:06;;;;;;;6.88;3.47;;;25.20;3.40;;;;;;5110277;28;20038;-63
2023/06/12 11:27:33;;;;;;;6.18;4.13;;;25.10;3.70;;;;;;5092914;28;20028;-63
2023/06/12 11:30:09;;;;;;;4.07;3.50;;;24.80;3.30;;;;;;5110006;28;20044;-63
2023/06/12 11:32:34;;;;;;;6.88;3.35;;;24.80;2.60;;;;;;5087874;28;20395;-63
2023/06/12 11:35:02;;;;;;;3.72;2.85;;;25.00;2.90;;;;;;5089582;28;20472;-63
2023/06/12 11:37:28;;;;;;;5.63;3.70;;;25.30;2.70;;;;;;5102563;28;20081;-63
2023/06/12 11:40:09;;;;;;;9.18;4.13;;;25.50;2.70;;;;;;5089522;28;20036;-62
2023/06/12 11:42:36;;;;;;;4.40;3.55;;;25.20;2.90;;;;;;5078819;28;20050;-62
2023/06/12 11:45:06;;;;;;;8.70;4.13;;;25.50;2.30;;;;;;5109867;28;20102;-62
2023/06/12 11:47:33;;;;;;;8.55;3.47;;;25.60;1.60;;;;;;5091170;28;20031;-63
2023/06/12 11:49:59;;;;;;;4.68;2.83;;;25.60;1.40;;;;;;5109801;28;20058;-63
2023/06/12 11:52:25;;;;;;;7.45;3.90;;;25.50;1.50;;;;;;5092221;28;20055;-62
2023/06/12 11:55:05;;;;;;;4.28;3.33;;;25.30;2.00;;;;;;5109726;28;20055;-63
2023/06/12 11:57:31;;;;;;;6.78;3.03;;;25.30;1.80;;;;;;5077459;28;20054;-62
2023/06/12 11:59:58;;;;;;;4.05;3.25;;;25.50;1.80;;;;;;5109706;28;20027;-62
2023/06/12 12:02:31;;;;;;;5.72;3.67;;;25.50;1.30;;;;;;5091545;28;20045;-63
2023/06/12 12:04:58;;;;;;;4.95;2.78;;;25.30;2.40;;;;;;5099413;28;20119;-62
2023/06/12 12:07:24;;;;;;;7.70;3.42;;;25.00;2.40;;;;;;5091256;28;20024;-62
2023/06/12 12:10:08;;;;;;;6.40;3.05;;;24.90;2.20;;;;;;5109474;28;20016;-63
2023/06/12 12:12:46;;;;;;;7.05;3.40;;;24.90;2.50;;;;;;5077926;28;20453;-63
2023/06/12 12:15:13;;;;;;;5.90;3.50;;;24.80;2.30;;;;;;5109262;28;20023;-64
2023/06/12 12:17:39;;;;;;;3.85;3.45;;;24.90;2.20;;;;;;5087264;28;20535;-62
2023/06/12 12:20:07;;;;;;;5.95;2.95;;;24.90;3.00;;;;;;5088767;28;20038;-63
2023/06/12 12:22:40;;;;;;;4.00;3.03;;;24.90;1.30;;;;;;5101304;28;20097;-63
2023/06/12 12:25:07;;;;;;;5.03;3.60;;;25.00;1.50;;;;;;5089085;28;20083;-57
2023/06/12 12:27:33;;;;;;;4.95;3.35;;;24.80;1.80;;;;;;5106539;28;20498;-63
2023/06/12 12:30:00;;;;;;;5.53;3.50;;;25.00;2.00;;;;;;5109061;28;20476;-65
2023/06/12 12:32:25;;;;;;;6.75;3.75;;;25.10;2.60;;;;;;5090194;28;20027;-65
2023/06/12 12:34:51;;;;;;;7.22;2.97;;;25.00;2.20;;;;;;5109065;28;20030;-65
2023/06/12 12:37:16;;;;;;;6.75;3.33;;;25.10;2.40;;;;;;5085880;28;20028;-65
2023/06/12 12:39:42;;;;;;;6.00;3.72;;;25.00;2.30;;;;;;5088465;28;20120;-65
2023/06/12 12:42:07;;;;;;;3.47;2.60;;;25.10;2.00;;;;;;5105910;28;20462;-64
2023/06/12 12:44:33;;;;;;;3.85;2.70;;;25.30;1.80;;;;;;5108930;28;20313;-65
2023/06/12 12:46:58;;;;;;;3.05;2.60;;;25.40;1.50;;;;;;5087091;28;20107;-65
2023/06/12 12:49:24;;;;;;;4.45;3.42;;;25.50;2.00;;;;;;5088729;28;20577;-65
2023/06/12 12:51:49;;;;;;;3.75;2.90;;;25.40;1.70;;;;;;5108218;28;20039;-65